FACT

Cape Town International Airport

Airport
ICAO code
FACT
IATA Code
CPT
Summary
ICAO Region
AFI
ICAO Territory
Location

, Western Cape

Serving
Cape Town
Elevation
151 ft
Coordinates
33° 57' 53" S , 18° 36' 6" E
Metar
Observation
FACT 312000Z 21011KT 9999 FEW007 19/17 Q1011 NOSIG
Station
Cape Town, Cape Town International Airport
Date/Time
2023-01-31 20:00:00
Wind direction
210°
Wind speed
11 kts
Lowest cloud amount
few clouds
Temperature
19°C
Dew point
17°C
Humidity
88%
QNH
1011 hPa
Weather condition
n/a

Runways

Designator Length Width Surface Rops
16/34 1701 46 ASP Yes/Yes
1/19 3201 61 ASP Yes/Yes

Airport map

Aerial View

SKYbrary Partners:

Safety knowledge contributed by: